Map

Track Data

SID SEASON NUMBER BASIN SUBBASIN NAME ISO_TIME NATURE LAT LON WMO_WIND WMO_PRES WMO_AGENCY TRACK_TYPE DIST2LAND LANDFALL IFLAG USA_AGENCY USA_ATCF_ID USA_LAT USA_LON USA_RECORD USA_STATUS USA_WIND USA_PRES USA_SSHS USA_R34_NE USA_R34_SE USA_R34_SW USA_R34_NW USA_R50_NE USA_R50_SE USA_R50_SW USA_R50_NW USA_R64_NE USA_R64_SE USA_R64_SW USA_R64_NW USA_POCI USA_ROCI USA_RMW USA_EYE TOKYO_LAT TOKYO_LON TOKYO_GRADE TOKYO_WIND TOKYO_PRES TOKYO_R50_DIR TOKYO_R50_LONG TOKYO_R50_SHORT TOKYO_R30_DIR TOKYO_R30_LONG TOKYO_R30_SHORT TOKYO_LAND CMA_LAT CMA_LON CMA_CAT CMA_WIND CMA_PRES HKO_LAT HKO_LON HKO_CAT HKO_WIND HKO_PRES NEWDELHI_LAT NEWDELHI_LON NEWDELHI_GRADE NEWDELHI_WIND NEWDELHI_PRES NEWDELHI_CI NEWDELHI_DP NEWDELHI_POCI REUNION_LAT REUNION_LON REUNION_TYPE REUNION_WIND REUNION_PRES REUNION_TNUM REUNION_CI REUNION_RMW REUNION_R34_NE REUNION_R34_SE REUNION_R34_SW REUNION_R34_NW REUNION_R50_NE REUNION_R50_SE REUNION_R50_SW REUNION_R50_NW REUNION_R64_NE REUNION_R64_SE REUNION_R64_SW REUNION_R64_NW BOM_LAT BOM_LON BOM_TYPE BOM_WIND BOM_PRES BOM_TNUM BOM_CI BOM_RMW BOM_R34_NE BOM_R34_SE BOM_R34_SW BOM_R34_NW BOM_R50_NE BOM_R50_SE BOM_R50_SW BOM_R50_NW BOM_R64_NE BOM_R64_SE BOM_R64_SW BOM_R64_NW BOM_ROCI BOM_POCI BOM_EYE BOM_POS_METHOD BOM_PRES_METHOD NADI_LAT NADI_LON NADI_CAT NADI_WIND NADI_PRES WELLINGTON_LAT WELLINGTON_LON WELLINGTON_WIND WELLINGTON_PRES DS824_LAT DS824_LON DS824_STAGE DS824_WIND DS824_PRES TD9636_LAT TD9636_LON TD9636_STAGE TD9636_WIND TD9636_PRES TD9635_LAT TD9635_LON TD9635_WIND TD9635_PRES TD9635_ROCI NEUMANN_LAT NEUMANN_LON NEUMANN_CLASS NEUMANN_WIND NEUMANN_PRES MLC_LAT MLC_LON MLC_CLASS MLC_WIND MLC_PRES USA_GUST BOM_GUST BOM_GUST_PER REUNION_GUST REUNION_GUST_PER USA_SEAHGT USA_SEARAD_NE USA_SEARAD_SE USA_SEARAD_SW USA_SEARAD_NW STORM_SPEED STORM_DIR
1946250N12150 1946 51 WP MM OPAL 1946-09-06 12:00:00 NR 12.3000 150.000 main 1638 1631 __________O___ -1 12.3000 150.000 7 26 277
1946250N12150 1946 51 WP MM OPAL 1946-09-06 15:00:00 NR 12.4630 148.659 main 1642 1637 __________P___ -1 12.4630 148.659 7 26 277
1946250N12150 1946 51 WP MM OPAL 1946-09-06 18:00:00 NR 12.6177 147.374 main 1646 1646 __________P___ -1 12.6177 147.374 7 24 277
1946250N12150 1946 51 WP MM OPAL 1946-09-06 21:00:00 NR 12.7634 146.201 main 1669 1669 __________P___ -1 12.7634 146.201 7 21 278
1946250N12150 1946 51 WP MM OPAL 1946-09-07 00:00:00 NR 12.9000 145.200 main 1687 1687 __________O___ -1 12.9000 145.200 7 18 279
1946250N12150 1946 51 WP MM OPAL 1946-09-07 03:00:00 NR 13.0275 144.406 main 1709 1709 __________P___ -1 13.0275 144.406 7 10 273
1946250N12150 1946 51 WP MM OPAL 1946-09-07 06:00:00 TS 12.9521 144.169 main 1712 1712 O________OPO__ jtwc_wp WP101946 12.7000 144.700 60 0 12.7000 144.700 TC 60 13.1412 143.770 7 12.7000 144.700 60 991 300 8 273
1946250N12150 1946 51 WP MM OPAL 1946-09-07 09:00:00 TS 13.0656 143.565 main 1734 1734 P________PPP__ WP101946 12.9531 143.793 60 0 12.9531 143.793 TC 60 13.2345 143.225 7 12.9531 143.793 60 989 330 13 282
1946250N12150 1946 51 WP MM OPAL 1946-09-07 12:00:00 TS 13.2308 142.838 main 1734 1729 O________OOO__ jtwc_wp WP101946 13.2000 142.900 60 0 13.2000 142.900 TC 60 13.3000 142.700 2 60 13.2000 142.900 60 988 360 15 283
1946250N12150 1946 51 WP MM OPAL 1946-09-07 15:00:00 TS 13.4044 142.062 main 1731 1713 P________PPP__ WP101946 13.4299 142.048 60 0 13.4299 142.048 TC 60 13.3280 142.105 2 65 13.4299 142.048 60 986 330 15 282
1946250N12150 1946 51 WP MM OPAL 1946-09-07 18:00:00 TS 13.5322 141.354 main 1713 1666 O________OPO__ jtwc_wp WP101946 13.6000 141.300 60 0 13.6000 141.300 TC 60 13.3290 141.515 2 70 13.6000 141.300 60 985 300 12 279
1946250N12150 1946 51 WP MM OPAL 1946-09-07 21:00:00 TS 13.5880 140.825 main 1656 1602 P________PPP__ WP101946 13.6789 140.795 70 1 13.6789 140.795 TC 70 13.3155 140.917 2 75 13.6789 140.795 70 984 300 11 274
1946250N12150 1946 51 WP MM OPAL 1946-09-08 00:00:00 TS 13.6000 140.225 main 1591 1495 O________OOO__ jtwc_wp WP101946 13.7000 140.200 80 1 13.7000 140.200 TC 80 13.3000 140.300 3 80 13.7000 140.200 80 983 300 15 271
1946250N12150 1946 51 WP MM OPAL 1946-09-08 03:00:00 TS 13.6060 139.286 main 1495 1389 P________PPP__ WP101946 13.7082 139.160 80 1 13.7082 139.160 TC 80 13.2994 139.663 3 80 13.7082 139.160 80 982 300 19 270
1946250N12150 1946 51 WP MM OPAL 1946-09-08 06:00:00 TS 13.5998 138.251 main 1389 1294 O________OPO__ jtwc_wp WP101946 13.7000 138.000 80 1 13.7000 138.000 TC 80 13.2991 139.002 3 80 13.7000 138.000 80 981 300 19 270
1946250N12150 1946 51 WP MM OPAL 1946-09-08 09:00:00 TS 13.5994 137.344 main 1283 1198 P________PPP__ WP101946 13.6994 137.020 80 1 13.6994 137.020 TC 80 13.2993 138.316 3 80 13.6994 137.020 80 979 330 17 270
1946250N12150 1946 51 WP MM OPAL 1946-09-08 12:00:00 TS 13.6000 136.475 main 1198 1114 O________OOO__ jtwc_wp WP101946 13.7000 136.100 80 1 13.7000 136.100 TC 80 13.3000 137.600 4 80 13.7000 136.100 80 978 360 17 270
1946250N12150 1946 51 WP MM OPAL 1946-09-08 15:00:00 TS 13.5990 135.637 main 1104 1020 P________PPP__ WP101946 13.6994 135.208 80 1 13.6994 135.208 TC 80 13.2979 136.926 4 80 13.6994 135.208 80 977 360 17 270
1946250N12150 1946 51 WP MM OPAL 1946-09-08 18:00:00 TS 13.5992 134.779 main 1020 924 O________OPO__ jtwc_wp WP101946 13.7000 134.300 80 1 13.7000 134.300 TC 80 13.2966 136.214 4 80 13.7000 134.300 80 976 360 18 270
1946250N12150 1946 51 WP MM OPAL 1946-09-08 21:00:00 TS 13.5939 133.802 main 913 817 P________PPP__ WP101946 13.6928 133.262 80 1 13.6928 133.262 TC 80 13.2972 135.420 4 80 13.6928 133.262 80 975 330 19 270
1946250N12150 1946 51 WP MM OPAL 1946-09-09 00:00:00 TS 13.6000 132.850 main 807 732 O________OOO__ jtwc_wp WP101946 13.7000 132.300 80 1 13.7000 132.300 TC 80 13.3000 134.500 4 80 13.7000 132.300 80 974 300 17 271
1946250N12150 1946 51 WP MM OPAL 1946-09-09 03:00:00 TS 13.6200 132.057 main 732 648 P________PPP__ WP101946 13.7492 131.613 80 1 13.7492 131.613 TC 80 13.2322 133.389 4 80 13.7492 131.613 80 972 330 15 272
1946250N12150 1946 51 WP MM OPAL 1946-09-09 06:00:00 TS 13.6436 131.289 main 648 564 O________OPO__ jtwc_wp WP101946 13.8000 131.000 80 1 13.8000 131.000 TC 80 13.1742 132.158 4 80 13.8000 131.000 80 971 360 16 271
1946250N12150 1946 51 WP MM OPAL 1946-09-09 09:00:00 TS 13.6388 130.434 main 554 475 P________PPP__ WP101946 13.7922 130.287 80 1 13.7922 130.287 TC 80 13.1788 130.873 4 80 13.7922 130.287 80 970 390 17 271
1946250N12150 1946 51 WP MM OPAL 1946-09-09 12:00:00 TS 13.6750 129.525 main 465 380 O________OOO__ jtwc_wp WP101946 13.8000 129.500 80 1 13.8000 129.500 TC 80 13.3000 129.600 4 80 13.8000 129.500 80 969 420 18 275
1946250N12150 1946 51 WP MM OPAL 1946-09-09 15:00:00 TS 13.7971 128.551 main 380 303 P________PPP__ WP101946 13.8549 128.622 85 2 13.8549 128.622 TC 85 13.6236 128.339 4 85 13.8549 128.622 85 967 390 19 280
1946250N12150 1946 51 WP MM OPAL 1946-09-09 18:00:00 TS 14.0153 127.553 main 303 241 O________OPO__ jtwc_wp WP101946 14.0000 127.700 90 2 14.0000 127.700 TC 90 14.0612 127.111 4 90 14.0000 127.700 90 965 360 20 286
1946250N12150 1946 51 WP MM OPAL 1946-09-09 21:00:00 TS 14.3494 126.577 main 241 166 P________PPP__ WP101946 14.2849 126.778 95 2 14.2849 126.778 TC 95 14.5430 125.976 4 95 14.2849 126.778 95 963 360 19 291
1946250N12150 1946 51 WP MM OPAL 1946-09-10 00:00:00 TS 14.7000 125.675 main 166 119 O________OOO__ jtwc_wp WP101946 14.6000 125.900 100 3 14.6000 125.900 TC 100 15.0000 125.000 4 100 14.6000 125.900 100 962 360 17 290
1946250N12150 1946 51 WP MM OPAL 1946-09-10 03:00:00 TS 14.9298 124.897 main 119 114 P________PPP__ WP101946 14.7846 125.119 100 3 14.7846 125.119 TC 100 15.3653 124.230 4 97 14.7846 125.119 100 962 360 15 288
1946250N12150 1946 51 WP MM OPAL 1946-09-10 06:00:00 TS 15.1735 124.206 main 134 134 O________OPO__ jtwc_wp WP101946 15.0000 124.400 100 3 15.0000 124.400 TC 100 15.6938 123.624 4 95 15.0000 124.400 100 962 360 14 294
1946250N12150 1946 51 WP MM OPAL 1946-09-10 09:00:00 TS 15.5097 123.574 main 163 91 P________PPP__ WP101946 15.3544 123.722 95 2 15.3544 123.722 TC 95 15.9756 123.131 4 92 15.3544 123.722 95 962 360 14 300
1946250N12150 1946 51 WP MM OPAL 1946-09-10 12:00:00 TS 15.9000 122.925 main 82 0 O________OOO__ jtwc_wp WP101946 15.8000 123.000 90 2 15.8000 123.000 TC 90 16.2000 122.700 4 90 15.8000 123.000 90 962 360 15 301
1946250N12150 1946 51 WP MM OPAL 1946-09-10 15:00:00 TS 16.3029 122.204 main 0 0 P________PPP__ WP101946 16.2850 122.130 85 2 16.2850 122.130 TC 85 16.3565 122.426 4 87 16.2850 122.130 85 962 390 16 300
1946250N12150 1946 51 WP MM OPAL 1946-09-10 18:00:00 TS 16.7148 121.444 main 0 0 O________OPO__ jtwc_wp WP101946 16.8000 121.200 80 1 16.8000 121.200 TC 80 16.4591 122.174 4 85 16.8000 121.200 80 963 420 17 299
1946250N12150 1946 51 WP MM OPAL 1946-09-10 21:00:00 TS 17.1250 120.649 main 0 0 P________PPP__ WP101946 17.3225 120.270 80 1 17.3225 120.270 TC 80 16.5325 121.785 4 82 17.3225 120.270 80 963 450 17 297
1946250N12150 1946 51 WP MM OPAL 1946-09-11 00:00:00 TS 17.5000 119.825 main 54 54 O________OOO__ jtwc_wp WP101946 17.8000 119.400 80 1 17.8000 119.400 TC 80 16.6000 121.100 4 80 17.8000 119.400 80 963 480 18 292
1946250N12150 1946 51 WP MM OPAL 1946-09-11 03:00:00 TS 17.7931 118.953 main 139 139 P________PPP__ WP101946 18.1795 118.662 85 2 18.1795 118.662 TC 85 16.6341 119.825 4 82 18.1795 118.662 85 963 480 18 288
1946250N12150 1946 51 WP MM OPAL 1946-09-11 06:00:00 TS 18.0413 118.065 main 237 237 O________OPO__ jtwc_wp WP101946 18.5000 118.000 90 2 18.5000 118.000 TC 90 16.6652 118.261 4 85 18.5000 118.000 90 964 480 18 286
1946250N12150 1946 51 WP MM OPAL 1946-09-11 09:00:00 TS 18.2783 117.177 main 337 337 P________PPP__ WP101946 18.7919 117.364 90 2 18.7919 117.364 TC 90 16.7373 116.617 4 87 18.7919 117.364 90 964 480 18 287
1946250N12150 1946 51 WP MM OPAL 1946-09-11 12:00:00 TS 18.5500 116.300 main 437 397 O________OOO__ jtwc_wp WP101946 19.1000 116.700 90 2 19.1000 116.700 TC 90 16.9000 115.100 4 90 19.1000 116.700 90 965 480 18 291
1946250N12150 1946 51 WP MM OPAL 1946-09-11 15:00:00 TS 18.9218 115.390 main 397 335 P________PPP__ WP101946 19.4778 115.893 90 2 19.4778 115.893 TC 90 17.2537 113.883 4 90 19.4778 115.893 90 965 450 19 296
1946250N12150 1946 51 WP MM OPAL 1946-09-11 18:00:00 TS 19.3504 114.533 main 320 252 O________OPO__ jtwc_wp WP101946 19.9000 115.100 90 2 19.9000 115.100 TC 90 17.7017 112.831 4 90 19.9000 115.100 90 966 420 17 301
1946250N12150 1946 51 WP MM OPAL 1946-09-11 21:00:00 TS 19.7886 113.854 main 252 189 P________PPP__ WP101946 20.3268 114.484 90 2 20.3268 114.484 TC 90 18.1739 111.964 4 90 20.3268 114.484 90 967 390 15 305
1946250N12150 1946 51 WP MM OPAL 1946-09-12 00:00:00 TS 20.2133 113.207 main 189 116 O________OOO__ jtwc_wp WP101946 20.8000 113.900 90 2 20.8000 113.900 TC 90 18.6000 111.300 4 90 20.8000 113.900 90 969 360 15 309
1946250N12150 1946 51 WP MM OPAL 1946-09-12 03:00:00 TS 20.7655 112.591 main 105 59 P________PPP__ WP101946 21.5585 113.301 90 2 21.5585 113.301 TC 90 18.8956 110.850 4 21.3334 113.231 90 971 330 15 305
1946250N12150 1946 51 WP MM OPAL 1946-09-12 06:00:00 TS 21.0496 111.914 main 63 52 O________OPO__ jtwc_wp WP101946 21.9000 112.500 90 2 21.9000 112.500 TC 90 19.1363 110.595 4 21.9000 112.500 90 973 300 16 259
1946250N12150 1946 51 WP MM OPAL 1946-09-12 09:00:00 TS 20.4631 110.955 main 52 0 P________PP___ WP101946 21.0276 111.212 82 1 21.0276 111.212 TC 82 19.3341 110.442 4 21 234
1946250N12150 1946 51 WP MM OPAL 1946-09-12 12:00:00 TS 19.8333 110.100 main 0 0 O________OO___ jtwc_wp WP101946 20.0000 110.000 75 1 20.0000 110.000 TC 75 19.5000 110.300 7 14 243
1946250N12150 1946 51 WP MM OPAL 1946-09-12 15:00:00 TS 19.8136 109.626 main 0 0 P________PP___ WP101946 19.8985 109.391 70 1 19.8985 109.391 TC 70 19.6440 110.096 7 8 282
1946250N12150 1946 51 WP MM OPAL 1946-09-12 18:00:00 TS 20.0105 109.227 main 24 24 O________OP___ jtwc_wp WP101946 20.1000 109.000 65 1 20.1000 109.000 TC 65 19.7720 109.831 7 9 289
1946250N12150 1946 51 WP MM OPAL 1946-09-12 21:00:00 TS 20.0850 108.765 main 61 61 P________PP___ WP101946 20.1340 108.575 62 0 20.1340 108.575 TC 62 19.8889 109.526 7 10 279
1946250N12150 1946 51 WP MM OPAL 1946-09-13 00:00:00 TS 20.1778 108.133 main 109 45 O________OO___ jtwc_wp WP101946 20.2000 108.000 60 0 20.2000 108.000 TC 60 20.0000 109.200 7 17 281
1946250N12150 1946 51 WP MM OPAL 1946-09-13 03:00:00 TS 20.3966 107.001 main 39 0 P________P____ WP101946 20.3966 107.001 52 0 20.3966 107.001 TC 52 7 20 279
1946250N12150 1946 51 WP MM OPAL 1946-09-13 06:00:00 TS 20.5000 106.000 main 0 0 O________O____ jtwc_wp WP101946 20.5000 106.000 45 0 20.5000 106.000 TC 45 7 15 262
1946250N12150 1946 51 WP MM OPAL 1946-09-13 09:00:00 TS 20.1965 105.424 main 0 0 P________P____ WP101946 20.1965 105.424 42 0 20.1965 105.424 TC 42 7 11 242
1946250N12150 1946 51 WP MM OPAL 1946-09-13 12:00:00 TS 20.0000 105.000 main 0 0 O________O____ jtwc_wp WP101946 20.0000 105.000 40 0 20.0000 105.000 TC 40 9 282
1946250N12150 1946 51 WP MM OPAL 1946-09-13 15:00:00 TS 20.3876 104.464 main 0 0 P________P____ WP101946 20.3876 104.464 37 0 20.3876 104.464 TC 37 14 317
1946250N12150 1946 51 WP MM OPAL 1946-09-13 18:00:00 TS 21.0000 104.000 main 0 0 O________O____ jtwc_wp WP101946 21.0000 104.000 35 0 21.0000 104.000 TC 35 14 328
1946250N12150 1946 51 WP MM OPAL 1946-09-13 21:00:00 TS 21.5374 103.699 main 0 0 P________P____ WP101946 21.5374 103.699 32 -1 21.5374 103.699 TC 32 11 335
1946250N12150 1946 51 WP MM OPAL 1946-09-14 00:00:00 TS 22.0000 103.500 main 0 O________O____ jtwc_wp WP101946 22.0000 103.500 30 -1 22.0000 103.500 TC 30 10 338

Digital Typhoon Data and Search

About IBTrACS Database

This database is a web-friendly format of International Best Track Archive for Climate Stewardship (IBTrACS), a global best track data archive curated by NOAA dating back to 1842.

Updated: 2021-12-01